Terminal Aerodrome Forecast
Issued by NWS Paducah, KY

Home | Current Version | Previous Version | Text Only | Print | Product List | Glossary On
Versions: 1 2 3 4 5 6 7 8 9 10 11 12 13
420
FTUS43 KPAH 011122
TAFEVV
TAF
KEVV 011122Z 0112/0212 26005KT P6SM SKC
     FM011600 26008KT P6SM FEW250
     FM020000 26004KT P6SM FEW130=

USA.gov is the U.S. government's official web portal to all federal, state and local government web resources and services.